Date,TemperatureHighF,TemperatureAvgF,TemperatureLowF,DewpointHighF,DewpointAvgF,DewpointLowF,HumidityHigh,HumidityAvg,HumidityLow,PressureMaxIn,PressureMinIn,WindSpeedMaxMPH,WindSpeedAvgMPH,GustSpeedMaxMPH,PrecipitationSumIn
2013-1-1,66.0,54.8,46.0,57.0,50.1,44.0,94,85,61,0.00,40.00,4,2,12,0.01
2013-1-2,77.0,68.4,61.0,66.0,57.2,49.0,79,68,42,0.00,40.00,4,2,14,0.00
2013-1-3,80.0,74.7,69.0,79.0,66.0,55.0,96,75,52,0.00,40.00,4,2,14,0.04
2013-1-4,87.0,82.0,79.0,83.0,79.8,72.0,99,94,66,0.00,40.00,2,1,8,0.15
2013-1-5,91.0,86.5,82.0,88.0,84.7,81.0,99,95,82,0.00,40.00,3,1,8,0.01
2013-1-6,92.0,85.6,77.0,90.0,82.0,73.0,95,89,73,0.00,40.00,3,2,11,0.02
2013-2-18,37.0,36.5,35.0,37.0,35.9,35.0,100,98,95,0.00,40.00,2,1,8,0.07
2013-2-19,47.0,36.3,32.0,41.0,35.0,32.0,100,95,77,0.00,40.00,4,2,12,0.29
2013-2-20,47.0,36.2,32.0,41.0,35.0,32.0,100,96,74,0.00,40.00,2,1,12,0.17
2013-2-21,41.0,36.4,33.0,40.0,36.1,33.0,100,99,94,0.00,40.00,5,2,14,0.20
2013-2-22,41.0,38.7,35.0,41.0,38.4,34.0,100,99,93,0.00,40.00,9,4,28,0.65
2013-2-23,43.0,35.3,32.0,38.0,33.6,30.0,100,94,77,0.00,40.00,6,2,18,0.31
2013-2-24,54.0,39.9,32.0,37.0,33.1,30.0,100,79,45,0.00,40.00,3,1,12,0.01
2013-2-25,43.0,37.3,32.0,39.0,35.8,32.0,100,95,76,0.00,40.00,10,4,30,0.51
2013-2-26,50.0,37.4,31.0,38.0,33.9,31.0,100,89,55,0.00,40.00,3,1,9,0.02
2013-2-27,46.0,41.3,37.0,44.0,38.8,30.0,100,91,77,0.00,40.00,3,1,9,0.24
2013-2-28,51.0,47.4,43.0,51.0,47.4,43.0,100,100,99,0.00,40.00,5,3,17,0.39
2013-3-1,56.0,49.4,45.0,52.0,48.1,45.0,100,96,80,0.00,40.00,3,1,10,0.09
2013-3-2,53.0,46.8,39.0,50.0,45.8,39.0,100,96,86,0.00,40.00,3,1,11,0.03
2013-3-3,50.0,39.6,33.0,39.0,31.6,28.0,100,76,48,0.00,40.00,4,2,14,0.04
2013-3-4,56.0,41.3,32.0,39.0,33.5,26.0,100,76,48,0.00,40.00,4,2,16,0.00
2013-3-5,42.0,39.6,38.0,42.0,38.3,27.0,100,96,61,0.00,40.00,2,1,11,0.43
2013-3-6,43.0,37.9,35.0,42.0,37.8,34.0,100,99,96,0.00,40.00,5,2,19,0.65
2013-3-7,54.0,41.7,33.0,41.0,35.7,32.0,100,81,47,0.00,40.00,3,1,8,0.04
2013-3-8,55.0,42.6,34.0,41.0,36.7,34.0,100,82,53,0.00,40.00,3,1,9,0.00
2013-3-9,61.0,46.0,35.0,42.0,36.8,32.0,99,72,45,0.00,40.00,3,1,10,0.00
2013-3-10,60.0,48.8,39.0,48.0,40.9,33.0,100,76,44,0.00,40.00,4,1,10,0.00
2013-3-11,62.0,50.1,44.0,51.0,47.0,44.0,100,90,60,0.00,40.00,3,0,10,0.01
2013-3-12,65.0,49.2,44.0,49.0,45.1,42.0,100,87,55,0.00,40.00,4,1,10,0.01
2013-3-13,71.0,51.4,41.0,50.0,45.0,40.0,99,81,43,0.00,40.00,3,1,6,0.00
2013-3-14,54.0,48.0,42.0,49.0,43.3,38.0,99,85,61,0.00,40.00,4,2,20,0.00
2013-3-15,65.0,51.2,45.0,51.0,46.8,42.0,100,87,49,0.00,40.00,4,2,15,0.01
2013-3-16,45.0,42.1,35.0,44.0,41.5,33.0,100,98,94,0.00,40.00,6,3,20,0.40
2013-3-17,51.0,38.1,32.0,40.0,33.9,31.0,100,86,61,0.00,40.00,3,2,16,0.13
2013-3-18,53.0,40.7,32.0,35.0,31.9,29.0,99,74,45,0.00,40.00,4,1,15,0.01
2013-3-19,50.0,42.8,36.0,47.0,38.2,30.0,100,84,67,0.00,40.00,4,1,14,0.68
2013-3-20,48.0,42.4,34.0,48.0,41.5,33.0,100,97,88,0.00,40.00,12,6,33,1.53
2013-3-21,45.0,35.8,32.0,39.0,34.7,32.0,100,96,80,0.00,40.00,6,2,21,0.26
2013-3-22,44.0,35.4,31.0,39.0,32.7,28.0,100,90,72,0.00,40.00,4,1,10,0.18
2013-3-23,48.0,37.7,30.0,34.0,30.1,22.0,100,76,51,0.00,40.00,3,1,12,0.01
2013-3-24,55.0,42.6,34.0,37.0,31.9,22.0,79,66,50,0.00,40.00,3,1,9,0.01
2013-3-25,56.0,46.4,38.0,43.0,36.7,31.0,89,70,49,0.00,40.00,3,1,8,0.00
2013-3-26,51.0,44.1,40.0,47.0,42.5,40.0,100,95,71,0.00,40.00,2,0,6,0.11
2013-3-27,62.0,47.1,41.0,50.0,44.5,41.0,100,92,64,0.00,40.00,4,1,12,0.09
2013-3-28,62.0,53.0,45.0,52.0,46.9,44.0,96,81,53,0.00,40.00,4,2,11,0.10
2013-3-29,68.0,53.7,44.0,54.0,47.8,41.0,99,82,58,0.00,40.00,3,1,9,0.02
2013-3-30,73.0,59.4,46.0,51.0,46.7,43.0,89,65,38,0.00,40.00,3,2,13,0.01
2013-3-31,72.0,56.1,48.0,51.0,47.2,44.0,96,75,44,0.00,40.00,7,3,17,0.00
2013-4-1,59.0,50.1,46.0,49.0,47.5,45.0,100,92,69,0.00,40.00,4,2,12,0.00
2013-4-2,70.0,53.4,42.0,49.0,45.6,42.0,100,79,39,0.00,40.00,3,1,12,0.00
2013-4-3,68.0,55.0,46.0,51.0,48.0,46.0,100,79,53,0.00,40.00,2,0,6,0.00
2013-4-4,55.0,50.9,46.0,54.0,49.8,45.0,100,96,90,0.00,40.00,7,3,27,0.32
2013-4-5,49.0,47.2,46.0,49.0,47.0,46.0,100,99,97,0.00,40.00,6,4,20,0.80
2013-4-6,50.0,45.0,42.0,47.0,44.4,42.0,100,98,90,0.00,40.00,6,4,26,1.07
2013-4-7,46.0,41.3,35.0,46.0,40.7,35.0,100,98,94,0.00,40.00,11,6,42,1.05
2013-4-8,52.0,41.6,35.0,45.0,39.1,35.0,100,92,67,0.00,40.00,6,2,13,0.07
2013-4-9,63.0,46.9,37.0,43.0,39.3,36.0,100,79,36,0.00,40.00,2,1,5,0.01
2013-4-10,57.0,47.4,40.0,51.0,44.3,36.0,100,89,69,0.00,40.00,7,3,20,0.10
2013-4-11,55.0,44.2,34.0,40.0,37.4,34.0,99,78,56,0.00,40.00,2,1,8,0.01
2013-4-12,59.0,45.7,35.0,43.0,38.0,33.0,100,77,44,0.00,40.00,9,2,21,0.06
2013-4-13,51.0,40.9,35.0,41.0,35.9,31.0,100,84,54,0.00,40.00,8,3,19,0.20
2013-4-14,44.0,37.9,34.0,41.0,36.7,34.0,100,95,79,0.00,40.00,3,1,9,0.24
2013-4-15,48.0,39.9,33.0,41.0,36.0,32.0,100,87,64,0.00,40.00,5,2,14,0.10
2013-4-16,50.0,41.6,35.0,44.0,37.4,34.0,96,85,64,0.00,40.00,7,2,17,0.16
2013-4-17,56.0,44.1,34.0,43.0,38.6,34.0,100,83,51,0.00,40.00,2,0,7,0.01
2013-4-18,62.0,49.4,39.0,46.0,42.1,39.0,99,79,49,0.00,40.00,3,1,10,0.00
2013-4-19,53.0,47.1,44.0,51.0,46.4,43.0,100,97,85,0.00,40.00,5,2,18,0.29
2013-4-20,64.0,49.6,41.0,48.0,43.8,41.0,100,83,48,0.00,40.00,2,1,10,0.06
2013-4-21,59.0,47.5,40.0,49.0,43.6,40.0,100,88,61,0.00,40.00,3,1,9,0.01
2013-4-22,65.0,50.2,38.0,44.0,35.6,25.0,95,63,31,0.00,40.00,5,3,16,0.00
2013-4-23,68.0,54.5,41.0,32.0,28.4,25.0,58,38,20,0.00,40.00,4,2,12,0.00
2013-4-24,75.0,58.3,46.0,32.0,26.0,18.0,45,31,13,0.00,40.00,4,3,17,0.00
2013-4-25,78.0,64.4,50.0,43.0,35.8,25.0,60,36,23,0.00,40.00,4,2,14,0.00
2013-4-26,82.0,65.4,50.0,46.0,41.7,36.0,68,45,26,0.00,40.00,3,1,10,0.00
2013-4-27,75.0,60.4,48.0,40.0,33.6,27.0,57,39,19,0.00,40.00,6,2,15,0.00
2013-4-28,67.0,53.8,42.0,48.0,42.8,36.0,98,70,38,0.00,40.00,4,2,15,0.00
2013-4-29,62.0,50.3,39.0,47.0,41.2,31.0,100,75,40,0.00,40.00,7,3,16,0.08
2013-4-30,57.0,45.3,34.0,35.0,32.6,29.0,87,63,44,0.00,40.00,3,2,11,0.07
2013-5-1,68.0,51.1,36.0,35.0,31.3,27.0,83,52,23,0.00,40.00,5,3,17,0.00
2013-5-2,79.0,63.7,47.0,35.0,30.6,25.0,49,31,15,0.00,40.00,4,2,17,0.00
2013-5-3,78.0,63.6,50.0,42.0,36.4,28.0,53,38,27,0.00,40.00,4,2,15,0.00
2013-5-4,79.0,65.9,55.0,39.0,32.5,22.0,53,31,12,0.00,40.00,7,4,24,0.00
2013-5-5,83.0,67.7,52.0,43.0,32.8,27.0,69,30,16,0.00,40.00,6,3,24,0.00
2013-5-6,82.0,61.7,47.0,48.0,45.0,41.0,87,59,30,0.00,40.00,4,2,14,0.00
2013-5-7,76.0,56.9,44.0,49.0,46.0,43.0,100,72,37,0.00,40.00,3,2,14,0.00
2013-5-8,74.0,55.9,43.0,54.0,47.4,43.0,100,77,41,0.00,40.00,4,1,10,0.00
2013-5-9,81.0,63.4,48.0,54.0,49.2,45.0,100,67,30,0.00,40.00,3,1,12,0.00
2013-5-10,86.0,65.9,51.0,56.0,48.6,-99.9,96,62,27,0.00,40.00,3,1,9,0.00
2013-5-11,88.0,65.8,49.0,57.0,51.1,47.0,94,66,25,0.00,40.00,2,1,10,0.00
2013-5-12,73.0,60.4,53.0,57.0,52.7,49.0,95,78,47,0.00,40.00,5,3,18,0.00
2013-5-13,62.0,54.1,45.0,53.0,49.1,44.0,99,85,59,0.00,40.00,8,3,20,0.00
2013-5-14,71.0,54.6,41.0,45.0,41.3,38.0,100,66,31,0.00,40.00,3,1,12,0.00
2013-5-15,60.0,49.9,45.0,50.0,44.9,38.0,99,83,66,0.00,40.00,3,1,8,0.09
2013-5-16,62.0,47.3,43.0,54.0,29.0,-99.9,100,91,74,0.00,40.00,5,2,13,0.28
2013-5-17,60.0,50.1,44.0,48.0,39.3,-99.9,99,82,55,0.00,40.00,6,2,17,0.02
2013-5-18,54.0,48.9,43.0,51.0,47.0,42.0,100,94,82,0.00,40.00,5,2,17,0.04
2013-5-19,65.0,53.7,47.0,49.0,47.5,45.0,100,81,54,0.00,40.00,3,1,11,0.02
2013-5-20,74.0,57.8,44.0,49.0,44.2,31.0,96,64,40,0.00,40.00,5,2,15,0.01
2013-5-21,50.0,43.4,38.0,48.0,41.6,37.0,100,94,68,0.00,40.00,7,3,20,0.57
2013-5-22,46.0,40.2,32.0,44.0,39.7,32.0,100,98,94,0.00,40.00,4,2,19,0.76
2013-5-23,53.0,45.0,40.0,48.0,43.3,40.0,100,94,72,0.00,40.00,4,2,17,0.21
2013-5-24,53.0,46.0,41.0,47.0,44.0,41.0,100,93,80,0.00,40.00,4,2,15,0.23
2013-5-25,70.0,52.1,39.0,50.0,44.5,39.0,100,80,42,0.00,40.00,4,2,12,0.18
2013-5-26,56.0,50.6,46.0,52.0,48.2,45.0,100,92,78,0.00,40.00,6,3,18,0.30
2013-5-27,61.0,50.7,46.0,58.0,49.8,46.0,100,97,88,0.00,40.00,6,3,21,0.75
2013-5-28,60.0,49.9,46.0,50.0,47.3,44.0,100,91,69,0.00,40.00,4,2,16,0.38
2013-5-29,55.0,49.0,42.0,53.0,48.3,42.0,100,97,91,0.00,40.00,6,3,26,0.73
2013-5-30,63.0,49.7,42.0,48.0,44.4,42.0,100,84,55,0.00,40.00,3,1,10,0.08
2013-5-31,68.0,54.6,41.0,47.0,43.7,39.0,99,70,42,0.00,40.00,4,1,10,0.00
2013-6-1,76.0,61.5,47.0,52.0,47.2,42.0,86,62,40,0.00,40.00,4,1,10,0.00
2013-6-2,73.0,57.3,47.0,53.0,49.3,47.0,100,78,46,0.00,40.00,4,1,10,0.00
2013-6-3,77.0,62.1,47.0,53.0,48.3,44.0,96,64,34,0.00,40.00,3,2,14,0.00
2013-6-4,81.0,67.2,53.0,52.0,46.9,41.0,72,50,30,0.00,40.00,4,2,11,0.00
2013-6-5,85.0,72.0,60.0,57.0,52.2,48.0,71,51,34,0.00,40.00,3,2,12,0.00
2013-6-6,83.0,69.6,57.0,57.0,52.8,40.0,88,58,34,0.00,40.00,4,1,11,0.00
2013-6-7,85.0,68.2,53.0,56.0,47.8,41.0,87,53,23,0.00,40.00,6,1,13,0.00
2013-6-8,81.0,65.3,51.0,52.0,44.6,36.0,89,53,21,0.00,40.00,4,2,13,0.00
2013-6-9,76.0,63.1,50.0,51.0,45.9,42.0,78,55,33,0.00,40.00,4,2,16,0.00
2013-6-10,74.0,58.0,44.0,46.0,43.2,39.0,86,61,37,0.00,40.00,5,2,15,0.00
2013-6-11,63.0,52.4,45.0,47.0,43.2,41.0,95,72,50,0.00,40.00,5,2,14,0.00
2013-6-12,63.0,51.3,42.0,47.0,43.8,41.0,99,78,53,0.00,40.00,6,1,15,0.00
2013-6-13,58.0,48.8,42.0,52.0,46.5,41.0,100,92,75,0.00,40.00,6,2,16,0.13
2013-6-14,71.0,57.3,43.0,51.0,46.6,43.0,100,72,41,0.00,40.00,3,2,20,0.04
2013-6-15,81.0,63.7,49.0,55.0,49.7,46.0,99,65,34,0.00,40.00,6,2,13,0.00
2013-6-16,76.0,58.7,47.0,53.0,49.0,46.0,100,75,40,0.00,40.00,6,2,19,0.00
2013-6-17,76.0,56.8,45.0,52.0,48.3,45.0,100,78,36,0.00,40.00,9,2,25,0.00
2013-6-18,63.0,53.9,46.0,53.0,47.7,45.0,100,81,58,0.00,40.00,7,3,17,0.01
2013-6-19,59.0,51.9,46.0,54.0,48.7,46.0,100,89,66,0.00,40.00,6,3,18,0.15
2013-6-20,62.0,50.8,47.0,55.0,49.0,46.0,100,94,74,0.00,40.00,2,1,10,0.19
2013-6-22,83.0,70.4,56.0,55.0,47.5,40.0,94,47,25,0.00,40.00,5,2,15,0.00
2013-6-23,71.0,60.2,52.0,62.0,57.0,51.0,100,90,59,0.00,40.00,5,2,18,0.12
2013-6-24,64.0,53.9,49.0,55.0,51.6,49.0,100,93,69,0.00,40.00,5,2,14,0.12
2013-6-25,63.0,56.2,52.0,57.0,54.2,52.0,100,93,75,0.00,40.00,6,2,21,0.45
2013-6-26,71.0,60.9,54.0,59.0,55.9,54.0,100,85,62,0.00,40.00,2,1,9,0.21
2013-6-27,81.0,67.5,57.0,62.0,57.8,54.0,98,73,52,0.00,40.00,6,2,17,0.01
2013-6-28,93.0,73.0,59.0,62.0,57.6,52.0,96,64,30,0.00,40.00,5,2,14,0.00
2013-6-29,91.0,73.9,59.0,59.0,54.9,52.0,83,55,31,0.00,40.00,3,1,10,0.00
2013-6-30,96.0,79.0,63.0,64.0,59.9,56.0,85,55,32,0.00,40.00,3,1,13,0.00
2013-7-1,94.0,75.1,57.0,66.0,61.5,56.0,97,67,38,0.00,40.00,2,0,8,0.00
2013-7-2,93.0,76.8,64.0,66.0,61.5,42.0,98,64,30,0.00,40.00,3,1,9,0.00
2013-7-3,86.0,73.0,58.0,53.0,49.9,46.0,75,47,27,0.00,40.00,4,2,13,0.00
2013-7-4,80.0,64.1,50.0,55.0,48.5,43.0,89,60,34,0.00,40.00,4,2,12,0.00
2013-7-5,78.0,62.1,48.0,54.0,49.2,46.0,95,67,34,0.00,40.00,3,2,14,0.00
2013-7-6,82.0,62.6,50.0,56.0,52.0,48.0,97,73,38,0.00,40.00,3,1,11,0.00
2013-7-7,81.0,64.4,50.0,57.0,53.8,50.0,100,73,41,0.00,40.00,3,1,11,0.00
2013-7-8,84.0,63.6,48.0,58.0,51.1,43.0,100,71,26,0.00,40.00,3,1,11,0.00
2013-7-9,91.0,73.5,61.0,58.0,54.2,48.0,79,54,25,0.00,40.00,3,2,10,0.00
2013-7-10,87.0,69.1,52.0,55.0,48.4,-99.9,90,53,27,0.00,40.00,3,2,11,0.00
2013-7-11,78.0,60.9,48.0,51.0,46.6,41.0,90,64,31,0.00,40.00,4,1,14,0.00
2013-7-12,80.0,61.4,50.0,52.0,46.5,43.0,87,61,33,0.00,40.00,5,2,12,0.00
2013-7-13,81.0,62.9,50.0,47.0,42.7,35.0,79,52,20,0.00,40.00,4,2,17,0.00
2013-7-14,88.0,69.7,58.0,52.0,46.0,41.0,61,45,22,0.00,40.00,3,2,11,0.00
2013-7-15,88.0,71.4,58.0,52.0,45.4,37.0,58,41,23,0.00,40.00,4,2,11,0.00
2013-7-16,84.0,70.7,54.0,59.0,54.8,50.0,90,61,39,0.00,40.00,4,3,16,0.00
2013-7-17,82.0,62.9,52.0,56.0,52.8,50.0,98,75,39,0.00,40.00,6,1,16,0.00
2013-7-18,88.0,69.9,53.0,58.0,55.0,52.0,96,64,32,0.00,40.00,3,1,10,0.00
2013-7-19,88.0,70.5,55.0,59.0,55.1,51.0,90,62,34,0.00,40.00,3,1,10,0.00
2013-7-20,86.0,64.1,48.0,58.0,51.9,-99.9,100,72,31,0.00,40.00,3,1,11,0.00
2013-7-21,87.0,71.3,56.0,57.0,51.7,47.0,80,53,26,0.00,40.00,3,2,12,0.00
2013-7-22,88.0,72.5,56.0,57.0,52.4,45.0,90,55,24,0.00,40.00,3,2,13,0.00
2013-7-23,93.0,75.0,59.0,58.0,53.1,43.0,88,52,18,0.00,40.00,3,1,11,0.00
2013-7-24,93.0,79.4,66.0,58.0,52.1,44.0,73,42,23,0.00,40.00,5,2,12,0.00
2013-7-25,92.0,77.5,64.0,56.0,49.5,38.0,71,41,17,0.00,40.00,3,2,12,0.00
2013-7-26,92.0,75.1,62.0,51.0,44.7,39.0,48,35,17,0.00,40.00,5,2,15,0.00
2013-7-27,83.0,68.3,52.0,51.0,42.9,36.0,76,42,24,0.00,40.00,5,2,14,0.00
2013-7-28,81.0,61.3,46.0,53.0,47.9,45.0,99,67,34,0.00,40.00,3,1,10,0.00
2013-7-29,82.0,62.2,48.0,55.0,51.4,47.0,98,72,37,0.00,40.00,2,1,9,0.00
2013-7-30,82.0,62.4,48.0,58.0,52.7,48.0,100,76,39,0.00,40.00,2,1,10,0.00
2013-7-31,71.0,57.0,52.0,59.0,53.7,52.0,100,90,61,0.00,40.00,3,1,9,0.00
2013-8-1,64.0,56.9,52.0,55.0,53.1,51.0,100,88,71,0.00,40.00,3,1,10,0.00
2013-8-2,78.0,60.4,49.0,56.0,52.1,49.0,100,78,44,0.00,40.00,3,1,9,0.00
2013-8-3,84.0,66.9,54.0,58.0,53.6,48.0,96,67,30,0.00,40.00,3,1,10,0.00
2013-8-4,92.0,73.2,59.0,59.0,56.5,54.0,89,60,29,0.00,40.00,3,1,10,0.00
2013-8-5,92.0,73.5,58.0,59.0,56.7,54.0,92,60,29,0.00,40.00,3,1,10,0.00
2013-8-6,93.0,76.8,64.0,57.0,46.6,40.0,70,38,17,0.00,40.00,3,2,11,0.00
2013-8-7,68.0,58.5,51.0,55.0,50.8,44.0,100,77,52,0.00,40.00,2,1,7,0.00
2013-8-8,83.0,63.6,48.0,61.0,54.8,48.0,100,77,42,0.00,40.00,2,1,11,0.00
2013-8-9,86.0,68.8,58.0,63.0,58.4,55.0,98,73,38,0.00,40.00,3,1,9,0.02
2013-8-10,73.0,60.5,54.0,61.0,56.1,53.0,99,87,61,0.00,40.00,3,1,11,0.01
2013-8-11,77.0,59.3,51.0,58.0,54.1,51.0,100,86,51,0.00,40.00,2,1,9,0.00
2013-8-21,89.0,72.2,58.0,54.0,48.8,45.0,62,46,26,0.00,40.00,3,2,15,0.00
2013-8-22,82.0,67.3,58.0,59.0,54.5,48.0,88,65,43,0.00,40.00,3,1,11,0.00
2013-8-23,77.0,58.3,52.0,56.0,53.2,52.0,100,86,45,0.00,40.00,4,1,11,0.00
2013-8-24,75.0,62.3,53.0,58.0,54.5,52.0,100,79,48,0.00,40.00,2,0,6,0.00
2013-8-25,65.0,58.4,55.0,61.0,55.2,50.0,100,89,79,0.00,40.00,1,0,7,0.10
2013-8-26,78.0,60.3,49.0,57.0,51.8,49.0,100,78,37,0.00,40.00,6,2,18,0.01
2013-8-27,74.0,62.0,58.0,57.0,56.5,55.0,93,83,54,0.00,40.00,3,1,12,0.01
2013-9-24,56.0,50.4,45.0,52.0,49.5,45.0,100,97,84,0.00,40.00,3,1,12,0.77
2013-9-25,59.0,48.8,44.0,49.0,45.3,43.0,100,89,66,0.00,40.00,4,1,12,0.01
2013-9-26,64.0,50.1,42.0,52.0,45.5,41.0,100,86,49,0.00,40.00,3,1,8,0.05
2013-9-27,54.0,48.3,43.0,52.0,47.9,43.0,100,99,94,0.00,40.00,3,1,13,0.65
2013-9-28,57.0,53.9,48.0,57.0,53.9,48.0,100,100,100,0.00,40.00,6,4,25,2.65
2013-9-29,55.0,50.0,48.0,55.0,50.0,45.0,100,100,98,0.00,40.00,14,4,41,3.40
2013-9-30,60.0,49.4,46.0,53.0,48.0,45.0,100,95,76,0.00,40.00,8,4,25,1.82
2013-12-26,53.0,40.1,32.0,39.0,31.2,27.0,91,71,56,0.00,40.00,1,0,6,0.01
2013-12-27,54.0,42.6,37.0,40.0,37.8,35.0,99,84,51,0.00,40.00,1,0,9,0.00
2013-12-28,43.0,37.2,34.0,40.0,35.5,34.0,99,94,79,0.00,40.00,4,2,16,0.00
2013-12-29,45.0,37.5,33.0,38.0,31.9,24.0,100,82,50,0.00,40.00,3,2,14,0.00
2013-12-30,50.0,43.9,35.0,36.0,30.6,21.0,88,60,34,0.00,40.00,3,1,16,0.00
2013-12-31,56.0,46.5,42.0,40.0,32.2,25.0,80,58,44,0.00,40.00,2,0,8,0.00
2014-1-1,51.0,41.7,37.0,42.0,37.9,35.0,100,87,66,0.00,40.00,2,1,7,0.00